Time;durP1;ratioP1;P1;durP2;ratioP2;P2;SDS_P1;SDS_P2;PMS_P1;PMS_P2;Temp;Humidity;BMP_temperature;BMP_pressure;BME280_temperature;BME280_humidity;BME280_pressure;Samples;Min_cycle;Max_cycle;Signal;HPM_P1;HPM_P2
2022/06/11 00:01:41;;;;;;;7.03;3.97;;;23.30;99.90;;;;;;5073127;28;20052;-72
2022/06/11 00:04:17;;;;;;;4.70;3.30;;;23.30;99.90;;;;;;5073343;28;20106;-72
2022/06/11 00:06:50;;;;;;;7.60;3.67;;;23.20;99.90;;;;;;5070583;28;20134;-72
2022/06/11 00:09:20;;;;;;;8.90;3.95;;;23.20;99.90;;;;;;5065546;28;20096;-72
2022/06/11 00:11:51;;;;;;;6.22;3.03;;;23.20;99.90;;;;;;5094025;28;20035;-72
2022/06/11 00:14:25;;;;;;;5.38;2.72;;;23.20;99.90;;;;;;5087385;28;20036;-72
2022/06/11 00:16:53;;;;;;;5.43;2.97;;;23.10;99.90;;;;;;5057823;28;20067;-72
2022/06/11 00:19:22;;;;;;;6.85;3.20;;;23.10;99.90;;;;;;5058103;28;20052;-72
2022/06/11 00:21:52;;;;;;;8.40;2.92;;;23.10;99.90;;;;;;5074811;28;20174;-72
2022/06/11 00:24:22;;;;;;;5.68;3.03;;;23.00;99.90;;;;;;5041937;28;20055;-72
2022/06/11 00:26:53;;;;;;;5.90;3.35;;;23.00;99.90;;;;;;5054301;28;20048;-73
2022/06/11 00:29:23;;;;;;;9.15;3.40;;;22.90;99.90;;;;;;5038053;28;20107;-73
2022/06/11 00:31:52;;;;;;;8.25;4.10;;;22.90;99.90;;;;;;5072272;28;20487;-72
2022/06/11 00:34:20;;;;;;;6.30;3.55;;;22.90;99.90;;;;;;5054835;28;20068;-73
2022/06/11 00:36:48;;;;;;;5.65;3.08;;;22.80;99.90;;;;;;5054169;28;20032;-73
2022/06/11 00:39:19;;;;;;;6.53;3.50;;;22.80;99.90;;;;;;5070858;28;20040;-72
2022/06/11 00:41:57;;;;;;;8.32;3.85;;;22.80;99.90;;;;;;5054257;28;20067;-73
2022/06/11 00:44:26;;;;;;;6.05;3.40;;;22.80;99.90;;;;;;5054135;28;20052;-74
2022/06/11 00:47:05;;;;;;;8.35;4.80;;;22.80;99.90;;;;;;5037719;28;20119;-72
2022/06/11 00:49:38;;;;;;;7.80;3.70;;;22.80;99.90;;;;;;5054088;28;20651;-72
2022/06/11 00:52:16;;;;;;;5.55;3.58;;;22.70;99.90;;;;;;5037689;28;20071;-72
2022/06/11 00:55:10;;;;;;;5.00;3.15;;;22.70;99.90;;;;;;5020770;28;20041;-72
2022/06/11 00:57:56;;;;;;;6.10;3.95;;;22.70;99.90;;;;;;5063843;28;20045;-72
2022/06/11 01:00:29;;;;;;;11.88;4.18;;;22.70;99.90;;;;;;5053897;28;20132;-73
2022/06/11 01:02:57;;;;;;;9.52;4.72;;;22.70;99.90;;;;;;5037476;28;20052;-72
2022/06/11 01:05:33;;;;;;;7.60;4.43;;;22.60;99.90;;;;;;5054147;28;20122;-72
2022/06/11 01:08:19;;;;;;;7.18;3.33;;;22.70;99.90;;;;;;5053917;28;20049;-72
2022/06/11 01:11:06;;;;;;;6.13;4.10;;;22.60;99.90;;;;;;5071561;28;20486;-72
2022/06/11 01:13:59;;;;;;;6.30;4.18;;;22.60;99.90;;;;;;5052081;28;20052;-73
2022/06/11 01:16:58;;;;;;;7.50;3.65;;;22.60;99.90;;;;;;5049436;28;20048;-73
2022/06/11 01:19:58;;;;;;;6.30;3.88;;;22.60;99.90;;;;;;5057072;28;20036;-72
2022/06/11 01:22:45;;;;;;;8.07;3.95;;;22.50;99.90;;;;;;5091521;28;20138;-73
2022/06/11 01:25:27;;;;;;;;;;;22.50;99.90;;;;;;5073848;28;20044;-72
2022/06/11 01:28:40;;;;;;;5.35;4.00;;;22.50;99.90;;;;;;5093912;28;19924;-72
2022/06/11 01:31:24;;;;;;;6.13;4.53;;;22.50;99.90;;;;;;5111489;28;20039;-73
2022/06/11 01:34:03;;;;;;;7.63;4.97;;;22.50;99.90;;;;;;5110124;28;20478;-72
2022/06/11 01:36:43;;;;;;;6.00;4.03;;;22.50;99.90;;;;;;5060056;28;20047;-72
2022/06/11 01:39:28;;;;;;;4.32;3.17;;;22.40;99.90;;;;;;5060097;28;20083;-75
2022/06/11 01:42:04;;;;;;;5.97;4.30;;;22.40;99.90;;;;;;5111670;28;20767;-73
2022/06/11 01:44:37;;;;;;;6.40;4.55;;;22.40;99.90;;;;;;5072433;28;20044;-73
2022/06/11 01:47:06;;;;;;;9.60;5.47;;;22.40;99.90;;;;;;5093192;28;20078;-73
2022/06/11 01:49:43;;;;;;;6.85;4.22;;;22.40;99.90;;;;;;5075972;28;20043;-74
2022/06/11 01:52:18;;;;;;;7.88;4.20;;;22.30;99.90;;;;;;5076401;28;20043;-73
2022/06/11 01:55:01;;;;;;;6.15;3.45;;;22.30;99.90;;;;;;5093322;28;20131;-73
2022/06/11 01:58:02;;;;;;;6.68;3.78;;;22.30;99.90;;;;;;5075771;28;20066;-73
2022/06/11 02:00:34;;;;;;;4.88;3.90;;;22.30;99.90;;;;;;5110372;28;20126;-74
2022/06/11 02:03:09;;;;;;;5.63;3.60;;;22.30;99.90;;;;;;5076013;28;20043;-73
2022/06/11 02:06:02;;;;;;;9.00;4.82;;;22.30;99.90;;;;;;5075233;28;20101;-74
2022/06/11 02:08:49;;;;;;;7.55;2.70;;;22.30;99.90;;;;;;5092939;28;20115;-73
2022/06/11 02:11:35;;;;;;;5.40;3.10;;;22.30;99.90;;;;;;5093113;28;20374;-73
2022/06/11 02:14:06;;;;;;;;;;;22.40;99.90;;;;;;5091544;28;20051;-73
2022/06/11 02:16:51;;;;;;;4.18;2.78;;;22.40;99.90;;;;;;5110315;28;19920;-73
2022/06/11 02:19:24;;;;;;;10.05;4.03;;;22.40;99.90;;;;;;5076497;28;20804;-73
2022/06/11 02:22:08;;;;;;;4.75;3.10;;;22.40;99.90;;;;;;5092557;28;20048;-73
2022/06/11 02:24:44;;;;;;;5.53;3.22;;;22.30;99.90;;;;;;5075597;28;20125;-73
2022/06/11 02:27:17;;;;;;;4.90;3.42;;;22.30;99.90;;;;;;5076262;28;20135;-73
2022/06/11 02:29:46;;;;;;;9.20;3.20;;;22.30;99.90;;;;;;5088433;28;20066;-73
2022/06/11 02:32:18;;;;;;;4.75;3.08;;;22.30;99.90;;;;;;5092925;28;20051;-73
2022/06/11 02:34:57;;;;;;;6.35;3.10;;;22.30;99.90;;;;;;5092579;28;20501;-73
2022/06/11 02:37:30;;;;;;;8.07;4.20;;;22.30;99.90;;;;;;5109884;28;20055;-73
2022/06/11 02:40:03;;;;;;;4.93;3.50;;;22.20;99.90;;;;;;5092802;28;20588;-73
2022/06/11 02:42:31;;;;;;;7.97;3.70;;;22.20;99.90;;;;;;5109657;28;20105;-72
2022/06/11 02:44:58;;;;;;;5.22;3.50;;;22.20;99.90;;;;;;5092645;28;20040;-73
2022/06/11 02:47:26;;;;;;;7.18;3.50;;;22.30;99.90;;;;;;5110532;28;20137;-73
2022/06/11 02:49:54;;;;;;;5.43;3.53;;;22.20;99.90;;;;;;5092572;28;20051;-73
2022/06/11 02:52:24;;;;;;;4.32;3.00;;;22.20;99.90;;;;;;5110736;28;20126;-73
2022/06/11 02:54:52;;;;;;;8.70;3.42;;;22.20;99.90;;;;;;5109820;28;20044;-73
2022/06/11 02:57:23;;;;;;;7.75;3.55;;;22.20;99.90;;;;;;5110675;28;20067;-73
2022/06/11 02:59:52;;;;;;;4.45;3.53;;;22.20;99.90;;;;;;5109983;28;20131;-74
2022/06/11 03:02:22;;;;;;;6.22;2.88;;;22.30;99.90;;;;;;5105528;28;20051;-73
2022/06/11 03:04:50;;;;;;;3.78;2.97;;;22.20;99.90;;;;;;5076061;28;20050;-73
2022/06/11 03:07:19;;;;;;;4.97;3.28;;;22.30;99.90;;;;;;5071656;28;20123;-73
2022/06/11 03:09:46;;;;;;;6.03;3.85;;;22.30;99.90;;;;;;5093027;28;20044;-73
2022/06/11 03:12:15;;;;;;;5.97;4.20;;;22.30;99.90;;;;;;5075836;28;20464;-72
2022/06/11 03:14:43;;;;;;;9.65;4.32;;;22.30;99.90;;;;;;5058957;28;20079;-73
2022/06/11 03:17:15;;;;;;;5.93;3.25;;;22.30;99.90;;;;;;5075944;28;20048;-73
2022/06/11 03:19:43;;;;;;;6.43;3.88;;;22.30;99.90;;;;;;5092736;28;20249;-73
2022/06/11 03:22:11;;;;;;;6.30;3.90;;;22.30;99.90;;;;;;5075802;28;20158;-72
2022/06/11 03:24:39;;;;;;;6.53;3.28;;;22.30;99.90;;;;;;5075068;28;20036;-74
2022/06/11 03:27:06;;;;;;;7.25;3.83;;;22.30;99.90;;;;;;5093494;28;20036;-73
2022/06/11 03:29:34;;;;;;;9.35;3.83;;;22.30;99.90;;;;;;5075376;28;20094;-73
2022/06/11 03:32:02;;;;;;;6.13;3.67;;;22.30;99.90;;;;;;5075541;28;20051;-73
2022/06/11 03:34:31;;;;;;;8.45;4.30;;;22.30;99.90;;;;;;5075592;28;20460;-73
2022/06/11 03:36:58;;;;;;;5.15;3.50;;;22.30;99.90;;;;;;5075749;28;20490;-73
2022/06/11 03:39:26;;;;;;;5.68;3.65;;;22.30;99.90;;;;;;5075535;28;20140;-73
2022/06/11 03:41:55;;;;;;;7.47;3.47;;;22.30;99.90;;;;;;5092428;28;20044;-73
2022/06/11 03:44:24;;;;;;;5.38;3.85;;;22.30;99.90;;;;;;5075466;28;20102;-73
2022/06/11 03:46:52;;;;;;;7.85;4.18;;;22.30;99.90;;;;;;5075951;28;20048;-73
2022/06/11 03:49:20;;;;;;;8.23;4.68;;;22.30;99.90;;;;;;5092489;28;20059;-73
2022/06/11 03:51:47;;;;;;;13.60;4.55;;;22.30;99.90;;;;;;5092128;28;20398;-73
2022/06/11 03:54:15;;;;;;;11.25;4.78;;;22.40;99.90;;;;;;5092368;28;20040;-73
2022/06/11 03:56:46;;;;;;;12.20;5.50;;;22.40;99.90;;;;;;5091660;28;20090;-72
2022/06/11 03:59:14;;;;;;;7.28;5.05;;;22.40;99.90;;;;;;5093446;28;20122;-75
2022/06/11 04:01:43;;;;;;;9.15;5.20;;;22.40;99.90;;;;;;5097946;28;20039;-73
2022/06/11 04:04:13;;;;;;;6.90;5.43;;;22.40;99.90;;;;;;5062407;28;20525;-73
2022/06/11 04:06:51;;;;;;;10.07;4.88;;;22.60;99.90;;;;;;5078817;28;20492;-73
2022/06/11 04:09:26;;;;;;;7.32;5.72;;;22.70;99.90;;;;;;5095390;28;20569;-73
2022/06/11 04:11:55;;;;;;;8.30;5.53;;;22.70;99.90;;;;;;5113375;28;20047;-73
2022/06/11 04:14:22;;;;;;;7.18;5.00;;;22.80;99.90;;;;;;5091913;28;20051;-73
2022/06/11 04:16:54;;;;;;;10.88;5.55;;;22.80;99.90;;;;;;5074492;28;20044;-72
2022/06/11 04:19:32;;;;;;;11.65;6.30;;;22.90;99.90;;;;;;5092524;28;20039;-73
2022/06/11 04:22:00;;;;;;;7.13;5.25;;;22.90;99.90;;;;;;5074070;28;20069;-73
2022/06/11 04:24:29;;;;;;;10.70;5.18;;;23.00;99.90;;;;;;5074255;28;20411;-73
2022/06/11 04:27:00;;;;;;;9.18;4.85;;;23.00;99.90;;;;;;5074566;28;20062;-73
2022/06/11 04:29:33;;;;;;;8.95;4.97;;;23.10;99.90;;;;;;5074509;28;20043;-74
2022/06/11 04:32:05;;;;;;;9.75;4.25;;;23.30;99.90;;;;;;5074787;28;20048;-73
2022/06/11 04:34:33;;;;;;;9.05;4.82;;;23.40;99.90;;;;;;5058229;28;20044;-73
2022/06/11 04:37:00;;;;;;;7.72;5.30;;;23.40;99.90;;;;;;5092644;28;20047;-73
2022/06/11 04:39:30;;;;;;;15.10;5.65;;;23.50;99.90;;;;;;5091959;28;20140;-73
2022/06/11 04:41:59;;;;;;;11.85;4.93;;;23.50;99.90;;;;;;5074241;28;20044;-73
2022/06/11 04:44:27;;;;;;;8.95;4.75;;;23.60;99.90;;;;;;5057219;28;20407;-73
2022/06/11 04:46:55;;;;;;;7.65;4.07;;;23.70;99.90;;;;;;5092434;28;20044;-73
2022/06/11 04:49:23;;;;;;;8.27;4.82;;;23.70;99.90;;;;;;5074217;28;20857;-73
2022/06/11 04:51:50;;;;;;;9.77;5.28;;;23.70;99.90;;;;;;5092183;28;20075;-74
2022/06/11 04:54:18;;;;;;;8.32;4.97;;;23.80;99.90;;;;;;5074173;28;20086;-73
2022/06/11 04:56:45;;;;;;;8.52;4.70;;;23.90;99.90;;;;;;5072071;28;20040;-73
2022/06/11 04:59:13;;;;;;;8.38;4.22;;;24.10;99.90;;;;;;5073964;28;20486;-73
2022/06/11 05:01:43;;;;;;;10.93;5.35;;;24.20;99.90;;;;;;5090866;28;20102;-73
2022/06/11 05:04:13;;;;;;;7.40;4.25;;;24.40;99.90;;;;;;5056541;28;20098;-74
2022/06/11 05:06:44;;;;;;;11.05;5.30;;;24.50;99.90;;;;;;5072713;28;20044;-74
2022/06/11 05:09:15;;;;;;;9.85;5.50;;;24.80;99.90;;;;;;5090477;28;20028;-74
2022/06/11 05:11:43;;;;;;;9.02;4.07;;;25.00;99.90;;;;;;5056923;28;20215;-74
2022/06/11 05:14:10;;;;;;;12.38;4.57;;;25.20;99.90;;;;;;5076087;28;20052;-74
2022/06/11 05:16:41;;;;;;;7.07;3.40;;;25.40;99.90;;;;;;5111987;28;20093;-73
2022/06/11 05:19:11;;;;;;;9.20;3.88;;;25.60;99.90;;;;;;5093868;28;20055;-73
2022/06/11 05:21:40;;;;;;;7.88;3.90;;;25.60;99.90;;;;;;5093466;28;20513;-74
2022/06/11 05:24:08;;;;;;;12.38;3.95;;;25.70;99.90;;;;;;5094068;28;20044;-75
2022/06/11 05:26:42;;;;;;;11.23;4.50;;;25.90;99.90;;;;;;5127438;27;20078;-73
2022/06/11 05:29:17;;;;;;;6.22;3.58;;;26.00;99.90;;;;;;5077176;28;20047;-73
2022/06/11 05:31:44;;;;;;;5.03;3.55;;;26.10;99.90;;;;;;5093714;28;20121;-74
2022/06/11 05:34:12;;;;;;;9.27;3.80;;;26.20;99.90;;;;;;5109833;28;20156;-75
2022/06/11 05:36:41;;;;;;;6.63;3.63;;;26.20;99.90;;;;;;5109812;28;20054;-74
2022/06/11 05:39:09;;;;;;;8.30;3.63;;;26.30;99.90;;;;;;5093382;28;20055;-75
2022/06/11 05:41:37;;;;;;;6.47;3.50;;;26.20;99.90;;;;;;5109521;28;20048;-75
2022/06/11 05:44:05;;;;;;;4.80;2.90;;;26.20;99.90;;;;;;5076346;28;20083;-74
2022/06/11 05:46:34;;;;;;;7.68;3.88;;;26.20;99.90;;;;;;5092640;28;20090;-74
2022/06/11 05:49:08;;;;;;;7.82;3.67;;;26.00;99.90;;;;;;5108143;28;20603;-74
2022/06/11 05:51:39;;;;;;;5.85;3.22;;;25.80;99.90;;;;;;5093054;28;20054;-74
2022/06/11 05:54:11;;;;;;;7.95;3.20;;;25.70;99.90;;;;;;5092821;28;20040;-75
2022/06/11 05:56:39;;;;;;;7.78;3.25;;;25.80;99.90;;;;;;5060811;28;20097;-74
2022/06/11 05:59:17;;;;;;;7.13;3.95;;;26.00;99.90;;;;;;5092459;28;20043;-74
2022/06/11 06:01:46;;;;;;;5.78;3.67;;;26.30;99.90;;;;;;5092242;28;20093;-74
2022/06/11 06:04:13;;;;;;;6.93;3.90;;;26.50;99.90;;;;;;5110778;28;20043;-74
2022/06/11 06:06:41;;;;;;;15.10;5.05;;;26.50;99.90;;;;;;5075588;28;20507;-75
2022/06/11 06:09:08;;;;;;;9.15;3.60;;;26.40;99.90;;;;;;5092241;28;20074;-75
2022/06/11 06:11:36;;;;;;;8.85;3.47;;;26.30;99.90;;;;;;5110599;28;20500;-74
2022/06/11 06:14:04;;;;;;;8.30;4.00;;;26.20;99.90;;;;;;5092027;28;20505;-74
2022/06/11 06:16:32;;;;;;;6.30;4.05;;;26.20;99.90;;;;;;5058611;28;20510;-74
2022/06/11 06:19:01;;;;;;;5.65;3.58;;;26.30;99.90;;;;;;5125847;27;20040;-74
2022/06/11 06:21:34;;;;;;;7.22;3.42;;;26.50;99.90;;;;;;5111116;28;20035;-74
2022/06/11 06:24:03;;;;;;;6.85;3.50;;;26.70;99.90;;;;;;5092446;28;20048;-74
2022/06/11 06:26:31;;;;;;;7.35;3.80;;;27.00;99.80;;;;;;5092648;28;20043;-75
2022/06/11 06:28:59;;;;;;;5.70;3.50;;;27.20;99.50;;;;;;5110842;28;20130;-75
2022/06/11 06:31:27;;;;;;;4.10;2.85;;;27.20;98.90;;;;;;5092468;28;20505;-74
2022/06/11 06:33:58;;;;;;;8.20;3.67;;;27.30;98.30;;;;;;5110741;28;20047;-74
2022/06/11 06:36:27;;;;;;;6.72;3.67;;;27.30;98.30;;;;;;5103270;28;20058;-75
2022/06/11 06:38:56;;;;;;;8.10;3.90;;;27.30;98.30;;;;;;5092721;28;20102;-74
2022/06/11 06:41:24;;;;;;;5.22;3.70;;;27.40;98.50;;;;;;5092775;28;20048;-74
2022/06/11 06:43:52;;;;;;;6.75;4.00;;;27.50;98.50;;;;;;5110461;28;20044;-74
2022/06/11 06:46:21;;;;;;;8.55;3.95;;;27.70;98.40;;;;;;5073830;28;20044;-75
2022/06/11 06:48:48;;;;;;;6.45;3.38;;;27.70;98.20;;;;;;5091573;28;20143;-74
2022/06/11 06:51:18;;;;;;;6.97;3.45;;;27.80;98.10;;;;;;5092650;28;20068;-74
2022/06/11 06:53:46;;;;;;;8.90;3.55;;;27.90;98.00;;;;;;5092757;28;20079;-74
2022/06/11 06:56:14;;;;;;;8.13;3.72;;;27.80;97.70;;;;;;5092752;28;20047;-74
2022/06/11 06:58:42;;;;;;;5.05;3.50;;;28.00;97.90;;;;;;5092533;28;20049;-74
2022/06/11 07:01:10;;;;;;;17.15;4.30;;;28.00;97.70;;;;;;5092458;28;20074;-74
2022/06/11 07:03:41;;;;;;;7.75;4.18;;;28.00;97.40;;;;;;5075795;28;20055;-74
2022/06/11 07:06:09;;;;;;;9.00;4.07;;;28.10;97.50;;;;;;5110752;28;20052;-74
2022/06/11 07:08:36;;;;;;;7.28;3.75;;;28.10;96.90;;;;;;5075263;28;20134;-74
2022/06/11 07:11:04;;;;;;;6.63;4.00;;;28.00;97.00;;;;;;5092321;28;20054;-74
2022/06/11 07:13:32;;;;;;;8.23;3.88;;;28.10;97.00;;;;;;5092349;28;20058;-75
2022/06/11 07:16:02;;;;;;;5.57;4.00;;;28.20;96.80;;;;;;5091775;28;20097;-74
2022/06/11 07:18:35;;;;;;;6.60;3.47;;;28.20;96.40;;;;;;5104249;28;20052;-74
2022/06/11 07:21:06;;;;;;;7.50;3.97;;;28.20;96.40;;;;;;5108825;28;20493;-75
2022/06/11 07:23:39;;;;;;;10.27;3.50;;;28.10;96.50;;;;;;5091587;28;20098;-74
2022/06/11 07:26:11;;;;;;;7.18;3.92;;;28.20;96.20;;;;;;5108722;28;20044;-75
2022/06/11 07:28:48;;;;;;;5.28;3.65;;;28.30;96.10;;;;;;5091410;28;20051;-74
2022/06/11 07:31:16;;;;;;;5.97;3.67;;;28.50;95.60;;;;;;5089809;28;20040;-74
2022/06/11 07:33:44;;;;;;;18.67;4.47;;;28.50;96.00;;;;;;5091926;28;20204;-74
2022/06/11 07:36:12;;;;;;;6.35;3.10;;;28.70;95.90;;;;;;5092193;28;20075;-74
2022/06/11 07:38:40;;;;;;;8.57;4.32;;;28.70;95.50;;;;;;5092085;28;20142;-74
2022/06/11 07:41:07;;;;;;;7.80;4.38;;;28.80;95.60;;;;;;5091801;28;20040;-74
2022/06/11 07:43:35;;;;;;;5.75;3.88;;;28.80;95.10;;;;;;5092234;28;20055;-74
2022/06/11 07:46:03;;;;;;;11.13;4.65;;;28.70;94.90;;;;;;5092231;28;20063;-74
2022/06/11 07:48:30;;;;;;;8.40;3.88;;;28.80;95.20;;;;;;5111006;28;20382;-75
2022/06/11 07:50:58;;;;;;;5.65;3.50;;;28.90;94.90;;;;;;5113770;28;20048;-74
2022/06/11 07:53:26;;;;;;;6.75;3.65;;;28.80;94.70;;;;;;5095339;28;20440;-74
2022/06/11 07:55:55;;;;;;;7.90;4.00;;;28.80;94.80;;;;;;5113159;28;20054;-74
2022/06/11 07:58:33;;;;;;;5.03;3.58;;;28.80;94.60;;;;;;5078047;28;20047;-74
2022/06/11 08:01:01;;;;;;;6.05;3.33;;;28.70;94.50;;;;;;5078538;28;20105;-74
2022/06/11 08:03:31;;;;;;;9.45;4.28;;;28.90;94.40;;;;;;5094951;28;20043;-74
2022/06/11 08:06:02;;;;;;;5.65;3.40;;;29.00;94.20;;;;;;5095494;28;20036;-74
2022/06/11 08:08:31;;;;;;;9.93;4.68;;;29.00;94.00;;;;;;5112318;28;20174;-74
2022/06/11 08:11:00;;;;;;;8.93;4.38;;;29.20;94.30;;;;;;5078349;28;20058;-74
2022/06/11 08:13:28;;;;;;;5.70;3.72;;;29.40;94.20;;;;;;5095072;28;20048;-74
2022/06/11 08:15:56;;;;;;;7.72;4.00;;;29.30;93.90;;;;;;5113042;28;20043;-74
2022/06/11 08:18:26;;;;;;;7.05;4.03;;;29.10;93.60;;;;;;5113242;28;20048;-74
2022/06/11 08:20:54;;;;;;;5.97;3.20;;;28.90;93.70;;;;;;5078449;28;21012;-74
2022/06/11 08:23:23;;;;;;;7.63;4.07;;;28.70;93.80;;;;;;5112151;28;20040;-74
2022/06/11 08:25:52;;;;;;;7.45;4.35;;;28.60;93.90;;;;;;5073942;28;20135;-74
2022/06/11 08:28:20;;;;;;;5.45;3.95;;;28.60;94.00;;;;;;5092466;28;20047;-75
2022/06/11 08:30:49;;;;;;;8.68;4.38;;;28.70;93.90;;;;;;5056631;28;20090;-74
2022/06/11 08:33:17;;;;;;;9.00;4.20;;;28.80;93.40;;;;;;5091366;28;20732;-74
2022/06/11 08:35:45;;;;;;;6.78;3.40;;;28.60;93.10;;;;;;5092734;28;20428;-74
2022/06/11 08:38:13;;;;;;;7.70;4.63;;;28.50;93.40;;;;;;5092825;28;20043;-75
2022/06/11 08:40:49;;;;;;;6.80;3.72;;;28.60;93.70;;;;;;5074204;28;20072;-74
2022/06/11 08:43:30;;;;;;;6.05;3.45;;;28.70;93.30;;;;;;5108100;28;20081;-74
2022/06/11 08:46:10;;;;;;;5.30;3.60;;;28.80;92.70;;;;;;5091967;28;20142;-73
2022/06/11 08:48:50;;;;;;;6.15;2.85;;;28.80;92.90;;;;;;5107678;28;20195;-74
2022/06/11 08:51:32;;;;;;;5.70;3.40;;;28.90;93.20;;;;;;5074722;28;20040;-74
2022/06/11 08:54:09;;;;;;;10.48;2.67;;;29.10;93.20;;;;;;5091207;28;20146;-74
2022/06/11 08:56:52;;;;;;;8.75;3.75;;;29.10;92.30;;;;;;5073482;28;20505;-74
2022/06/11 08:59:50;;;;;;;4.15;2.85;;;29.20;92.20;;;;;;5073906;28;20044;-74
2022/06/11 09:02:52;;;;;;;6.07;3.33;;;29.20;92.20;;;;;;5073756;28;20472;-74
2022/06/11 09:05:38;;;;;;;6.22;3.22;;;29.10;92.20;;;;;;5070069;28;20051;-74
2022/06/11 09:08:27;;;;;;;6.93;3.55;;;29.10;92.10;;;;;;5074033;28;20804;-74
2022/06/11 09:11:11;;;;;;;7.10;4.18;;;29.10;91.90;;;;;;5096117;28;20059;-74
2022/06/11 09:13:38;;;;;;;8.02;4.20;;;29.10;90.50;;;;;;5092856;28;20420;-74
2022/06/11 09:16:36;;;;;;;6.05;4.85;;;29.20;90.40;;;;;;5111906;28;20062;-74
2022/06/11 09:19:16;;;;;;;5.72;3.40;;;29.20;90.40;;;;;;5112237;28;20047;-74
2022/06/11 09:21:52;;;;;;;3.95;3.25;;;29.30;90.90;;;;;;5094195;28;20122;-74
2022/06/11 09:24:38;;;;;;;;;;;29.50;91.60;;;;;;5112804;28;20035;-73
2022/06/11 09:27:13;;;;;;;5.55;3.30;;;29.40;91.70;;;;;;5110817;28;19930;-74
2022/06/11 09:29:47;;;;;;;7.68;3.85;;;29.50;91.50;;;;;;5110526;28;20055;-75
2022/06/11 09:32:25;;;;;;;8.20;3.38;;;29.60;91.50;;;;;;5111184;28;20043;-74
2022/06/11 09:35:14;;;;;;;7.68;3.38;;;29.60;91.70;;;;;;5110687;28;20047;-74
2022/06/11 09:37:48;;;;;;;5.18;3.72;;;29.60;91.60;;;;;;5086397;28;20052;-74
2022/06/11 09:40:32;;;;;;;4.25;2.65;;;29.60;92.00;;;;;;5111843;28;20055;-74
2022/06/11 09:43:25;;;;;;;5.75;3.42;;;29.70;92.10;;;;;;5076789;28;20130;-74
2022/06/11 09:46:16;;;;;;;7.53;3.53;;;29.60;91.90;;;;;;5111551;28;20473;-73
2022/06/11 09:48:52;;;;;;;8.10;3.65;;;29.60;92.00;;;;;;5082321;28;20051;-74
2022/06/11 09:51:38;;;;;;;5.85;3.40;;;29.60;91.70;;;;;;5111801;28;20040;-74
2022/06/11 09:54:23;;;;;;;6.13;3.90;;;29.60;91.50;;;;;;5109983;28;20051;-74
2022/06/11 09:57:06;;;;;;;8.68;4.47;;;29.60;91.40;;;;;;5111326;28;20050;-74
2022/06/11 09:59:46;;;;;;;9.23;4.25;;;29.50;91.90;;;;;;5111420;28;20082;-74
2022/06/11 10:02:26;;;;;;;6.40;3.97;;;29.50;92.00;;;;;;5076215;28;20047;-74
2022/06/11 10:04:56;;;;;;;7.05;3.47;;;29.50;91.70;;;;;;5109211;28;20170;-74
2022/06/11 10:07:35;;;;;;;5.82;3.00;;;29.40;91.90;;;;;;5076734;28;20051;-73
2022/06/11 10:10:16;;;;;;;9.35;3.67;;;29.30;91.30;;;;;;5093148;28;20043;-74
2022/06/11 10:12:49;;;;;;;4.93;2.63;;;29.30;90.80;;;;;;5108903;28;20184;-73
2022/06/11 10:15:17;;;;;;;7.97;2.88;;;29.40;90.50;;;;;;5092938;28;20043;-75
2022/06/11 10:17:57;;;;;;;5.88;3.50;;;29.40;90.20;;;;;;5092809;28;20071;-74
2022/06/11 10:20:28;;;;;;;6.82;3.50;;;29.40;90.60;;;;;;5093158;28;20050;-74
2022/06/11 10:23:02;;;;;;;4.13;2.80;;;29.30;90.30;;;;;;5093173;28;20058;-74
2022/06/11 10:25:45;;;;;;;7.18;2.75;;;29.40;89.70;;;;;;5111409;28;20046;-74
2022/06/11 10:28:22;;;;;;;5.00;2.75;;;29.20;89.10;;;;;;5093032;28;20063;-74
2022/06/11 10:30:54;;;;;;;6.40;3.13;;;29.30;90.40;;;;;;5075138;28;20047;-74
2022/06/11 10:33:31;;;;;;;6.30;3.00;;;29.20;90.50;;;;;;5110775;28;20047;-74
2022/06/11 10:36:32;;;;;;;7.43;3.40;;;29.20;90.20;;;;;;5110856;28;20051;-71
2022/06/11 10:39:26;;;;;;;5.10;3.25;;;29.20;89.90;;;;;;5103120;28;20472;-76
2022/06/11 10:42:03;;;;;;;3.65;2.80;;;29.30;89.80;;;;;;5075851;28;20055;-74
2022/06/11 10:44:35;;;;;;;8.27;2.72;;;29.20;89.20;;;;;;5106825;28;20055;-75
2022/06/11 10:47:18;;;;;;;4.30;2.70;;;29.30;88.90;;;;;;5110857;28;20039;-74
2022/06/11 10:49:50;;;;;;;5.43;3.83;;;29.40;88.30;;;;;;5109911;28;20040;-73
2022/06/11 10:52:51;;;;;;;4.07;2.42;;;29.40;87.60;;;;;;5075252;28;20047;-72
2022/06/11 10:55:44;;;;;;;4.32;2.92;;;29.40;88.00;;;;;;5106883;28;20051;-74
2022/06/11 10:58:41;;;;;;;6.40;4.05;;;29.40;89.60;;;;;;5074781;28;20867;-73
2022/06/11 11:01:14;;;;;;;3.92;2.63;;;29.50;88.00;;;;;;5074602;28;20074;-74
2022/06/11 11:03:48;;;;;;;4.13;2.72;;;29.40;87.80;;;;;;5108281;28;20075;-74
2022/06/11 11:06:28;;;;;;;5.25;2.95;;;29.50;87.00;;;;;;5089538;28;20062;-74
2022/06/11 11:09:02;;;;;;;7.97;3.00;;;29.50;88.20;;;;;;5070872;28;20047;-73
2022/06/11 11:11:58;;;;;;;7.28;2.33;;;29.30;87.50;;;;;;5054733;28;20486;-73
2022/06/11 11:14:33;;;;;;;9.07;3.10;;;29.20;88.20;;;;;;5087062;28;20505;-74
2022/06/11 11:17:03;;;;;;;3.58;2.42;;;29.20;88.90;;;;;;5071325;28;20517;-74
2022/06/11 11:19:42;;;;;;;4.40;2.70;;;29.20;87.90;;;;;;5054859;28;20142;-74
2022/06/11 11:22:19;;;;;;;3.97;2.85;;;29.20;87.80;;;;;;5055250;28;20048;-74
2022/06/11 11:24:49;;;;;;;4.25;3.00;;;29.20;88.20;;;;;;5041854;28;20051;-74
2022/06/11 11:27:26;;;;;;;4.95;2.95;;;29.20;87.80;;;;;;5091759;28;20079;-74
2022/06/11 11:29:56;;;;;;;4.78;2.50;;;29.20;88.60;;;;;;5074566;28;20055;-74
2022/06/11 11:32:33;;;;;;;9.75;3.78;;;29.20;89.90;;;;;;5075250;28;20040;-73
2022/06/11 11:35:18;;;;;;;6.63;3.55;;;29.20;90.10;;;;;;5074849;28;20052;-73
2022/06/11 11:38:02;;;;;;;7.45;3.50;;;29.20;89.80;;;;;;5058789;28;20048;-74
2022/06/11 11:40:36;;;;;;;6.78;3.05;;;29.20;90.40;;;;;;5074791;28;20040;-74
2022/06/11 11:43:09;;;;;;;7.72;3.35;;;29.20;90.20;;;;;;5058232;28;20036;-74
2022/06/11 11:45:45;;;;;;;3.92;2.55;;;29.20;89.30;;;;;;5075267;28;20040;-74
2022/06/11 11:48:23;;;;;;;4.82;2.85;;;29.20;88.80;;;;;;5092873;28;20090;-74
2022/06/11 11:50:55;;;;;;;6.93;2.88;;;29.10;88.50;;;;;;5092464;28;20873;-74
2022/06/11 11:53:28;;;;;;;8.85;3.40;;;29.10;88.00;;;;;;5092570;28;20105;-75
2022/06/11 11:56:02;;;;;;;5.88;3.25;;;29.00;89.20;;;;;;5080893;28;20494;-73
2022/06/11 11:58:42;;;;;;;6.47;3.40;;;29.00;90.00;;;;;;5077361;28;20040;-74
2022/06/11 12:01:16;;;;;;;8.43;3.33;;;28.90;90.00;;;;;;5094983;28;20044;-73
2022/06/11 12:03:51;;;;;;;4.07;3.28;;;28.80;90.10;;;;;;5094214;28;20142;-74
2022/06/11 12:06:27;;;;;;;;;;;28.80;89.90;;;;;;5089911;28;20044;-74
2022/06/11 12:08:56;;;;;;;4.80;2.67;;;28.80;89.30;;;;;;5094826;28;20033;-75
2022/06/11 12:11:25;;;;;;;3.90;3.13;;;28.80;89.60;;;;;;5094830;28;20044;-74
2022/06/11 12:13:59;;;;;;;5.43;2.90;;;28.80;89.70;;;;;;5094175;28;20104;-75
2022/06/11 12:16:30;;;;;;;5.95;2.92;;;28.80;89.80;;;;;;5094404;28;20397;-74
2022/06/11 12:19:09;;;;;;;5.72;2.67;;;28.80;89.60;;;;;;5112257;28;20046;-74
2022/06/11 12:21:42;;;;;;;8.40;3.35;;;28.80;90.00;;;;;;5111142;28;20089;-75
2022/06/11 12:24:36;;;;;;;5.03;2.97;;;28.70;90.30;;;;;;5111301;28;20036;-75
2022/06/11 12:27:36;;;;;;;4.03;3.00;;;28.70;90.40;;;;;;5107459;28;20115;-74
2022/06/11 12:30:13;;;;;;;6.63;3.05;;;28.70;90.40;;;;;;5110895;28;20445;-74
2022/06/11 12:32:41;;;;;;;4.05;2.67;;;28.70;90.30;;;;;;5094419;28;20067;-75
2022/06/11 12:35:22;;;;;;;5.45;2.63;;;28.70;90.20;;;;;;5110490;28;20051;-75
2022/06/11 12:38:03;;;;;;;6.07;2.50;;;28.70;90.30;;;;;;5093793;28;20044;-75
2022/06/11 12:40:44;;;;;;;7.03;3.28;;;28.70;90.30;;;;;;5112152;28;20055;-75
2022/06/11 12:43:28;;;;;;;4.80;3.15;;;28.70;90.40;;;;;;5111443;28;20056;-75
2022/06/11 12:46:19;;;;;;;8.48;2.90;;;28.70;89.30;;;;;;5110283;28;20100;-74
2022/06/11 12:48:51;;;;;;;6.13;2.75;;;28.60;88.00;;;;;;5110844;28;20089;-74
2022/06/11 12:51:20;;;;;;;4.88;2.65;;;28.60;88.70;;;;;;5112751;28;20586;-74
2022/06/11 12:54:01;;;;;;;7.45;3.05;;;28.60;89.40;;;;;;5111201;28;20068;-74
2022/06/11 12:56:59;;;;;;;6.18;3.05;;;28.60;88.20;;;;;;5110930;28;20058;-73
2022/06/11 13:00:15;;;;;;;12.02;3.33;;;28.60;89.00;;;;;;5111077;28;20035;-74
2022/06/11 13:03:03;;;;;;;11.90;10.80;;;28.40;87.30;;;;;;5104193;28;20462;-78
2022/06/11 13:05:35;;;;;;;13.43;6.85;;;28.40;87.20;;;;;;5111105;28;20520;-76
2022/06/11 13:08:27;;;;;;;8.35;3.83;;;28.40;85.90;;;;;;5094411;28;20494;-75
2022/06/11 13:11:20;;;;;;;7.78;4.03;;;28.40;86.40;;;;;;5111239;28;20047;-75
2022/06/11 13:14:06;;;;;;;9.23;3.17;;;28.50;86.10;;;;;;5093623;28;20058;-77
2022/06/11 13:16:48;;;;;;;5.47;2.85;;;28.60;86.60;;;;;;5111019;28;20440;-76
2022/06/11 13:20:00;;;;;;;8.27;3.60;;;28.60;86.00;;;;;;5110936;28;20051;-76
2022/06/11 13:23:13;;;;;;;4.55;2.95;;;28.50;86.70;;;;;;5093601;28;20055;-76
2022/06/11 13:26:15;;;;;;;6.45;2.95;;;28.50;86.70;;;;;;5094180;28;20052;-74
2022/06/11 13:28:51;;;;;;;7.57;3.53;;;28.50;87.50;;;;;;5109670;28;20044;-74